createdAt,value
2017-10-15T00:01:15.087Z,15.80
2017-10-15T00:03:44.863Z,15.80
2017-10-15T00:06:14.778Z,15.80
2017-10-15T00:08:44.709Z,15.80
2017-10-15T00:11:14.594Z,15.80
2017-10-15T00:13:44.519Z,15.80
2017-10-15T00:16:14.238Z,15.80
2017-10-15T00:18:44.148Z,15.80
2017-10-15T00:21:14.266Z,15.80
2017-10-15T00:23:44.791Z,15.70
2017-10-15T00:26:15.460Z,15.70
2017-10-15T00:28:45.440Z,15.70
2017-10-15T00:31:15.139Z,15.70
2017-10-15T00:33:45.676Z,15.70
2017-10-15T00:36:15.756Z,15.70
2017-10-15T00:38:45.505Z,15.70
2017-10-15T00:41:15.624Z,15.70
2017-10-15T00:43:45.522Z,15.70
2017-10-15T00:46:16.888Z,15.70
2017-10-15T00:48:47.418Z,15.60
2017-10-15T00:51:17.329Z,15.70
2017-10-15T00:53:47.244Z,15.70
2017-10-15T00:56:17.568Z,15.60
2017-10-15T00:58:47.630Z,15.60
2017-10-15T01:01:17.757Z,15.60
2017-10-15T01:03:47.683Z,15.60
2017-10-15T01:06:17.599Z,15.60
2017-10-15T01:08:47.559Z,15.60
2017-10-15T01:11:17.462Z,15.60
2017-10-15T01:13:47.379Z,15.60
2017-10-15T01:16:17.868Z,15.60
2017-10-15T01:18:47.818Z,15.60
2017-10-15T01:21:18.757Z,15.60
2017-10-15T01:23:48.682Z,15.60
2017-10-15T01:26:18.587Z,15.60
2017-10-15T01:28:48.706Z,15.60
2017-10-15T01:31:18.836Z,15.60
2017-10-15T01:33:49.346Z,15.60
2017-10-15T01:36:19.267Z,15.60
2017-10-15T01:38:49.184Z,15.60
2017-10-15T01:41:19.916Z,15.60
2017-10-15T01:43:49.995Z,15.60
2017-10-15T01:46:20.361Z,15.60
2017-10-15T01:48:50.482Z,15.60
2017-10-15T01:51:20.392Z,15.50
2017-10-15T01:53:50.306Z,15.50
2017-10-15T01:56:20.838Z,15.50
2017-10-15T01:58:51.369Z,15.50
2017-10-15T02:01:21.280Z,15.50
2017-10-15T02:03:51.291Z,15.60
2017-10-15T02:06:21.313Z,15.50
2017-10-15T02:08:51.434Z,15.50
2017-10-15T02:11:21.549Z,15.50
2017-10-15T02:13:51.463Z,15.50
2017-10-15T02:16:21.585Z,15.50
2017-10-15T02:18:51.292Z,15.50
2017-10-15T02:21:21.411Z,15.50
2017-10-15T02:23:51.531Z,15.50
2017-10-15T02:26:22.263Z,15.50
2017-10-15T02:28:52.184Z,15.50
2017-10-15T02:31:22.296Z,15.50
2017-10-15T02:33:52.008Z,15.50
2017-10-15T02:36:22.129Z,15.50
2017-10-15T02:38:52.244Z,15.40
2017-10-15T02:41:23.184Z,15.50
2017-10-15T02:43:53.714Z,15.50
2017-10-15T02:46:23.946Z,15.40
2017-10-15T02:48:54.776Z,15.50
2017-10-15T02:51:24.685Z,15.40
2017-10-15T02:53:54.395Z,15.50
2017-10-15T02:56:24.923Z,15.40
2017-10-15T02:58:54.631Z,15.40
2017-10-15T03:01:24.732Z,15.40
2017-10-15T03:03:54.668Z,15.40
2017-10-15T03:06:24.375Z,15.40
2017-10-15T03:08:54.292Z,15.40
2017-10-15T03:11:24.529Z,15.40
2017-10-15T03:13:55.145Z,15.40
2017-10-15T03:16:25.055Z,15.40
2017-10-15T03:18:55.176Z,15.40
2017-10-15T03:21:24.885Z,15.40
2017-10-15T03:23:54.799Z,15.30
2017-10-15T03:26:24.921Z,15.30
2017-10-15T03:28:54.836Z,15.40
2017-10-15T03:31:24.748Z,15.30
2017-10-15T03:33:54.816Z,15.40
2017-10-15T03:36:24.779Z,15.30
2017-10-15T03:38:54.489Z,15.30
2017-10-15T03:41:24.612Z,15.30
2017-10-15T03:43:54.687Z,15.40
2017-10-15T03:46:24.806Z,15.40
2017-10-15T03:48:54.557Z,15.30
2017-10-15T03:51:24.683Z,15.30
2017-10-15T03:53:54.589Z,15.30
2017-10-15T03:56:24.710Z,15.30
2017-10-15T03:58:54.827Z,15.30
2017-10-15T04:01:25.113Z,15.30
2017-10-15T04:03:55.070Z,15.30
2017-10-15T04:06:24.777Z,15.30
2017-10-15T04:08:54.485Z,15.30
2017-10-15T04:11:24.194Z,15.30
2017-10-15T04:13:54.680Z,15.30
2017-10-15T04:16:24.795Z,15.30
2017-10-15T04:18:54.962Z,15.30
2017-10-15T04:21:25.080Z,15.20
2017-10-15T04:23:55.005Z,15.30
2017-10-15T04:26:25.319Z,15.30
2017-10-15T04:28:55.234Z,15.20
2017-10-15T04:31:25.354Z,15.20
2017-10-15T04:33:55.271Z,15.20
2017-10-15T04:36:25.184Z,15.20
2017-10-15T04:38:55.095Z,15.20
2017-10-15T04:41:25.214Z,15.20
2017-10-15T04:43:55.296Z,15.20
2017-10-15T04:46:25.190Z,15.20
2017-10-15T04:48:55.105Z,15.20
2017-10-15T04:51:25.281Z,15.20
2017-10-15T04:53:55.194Z,15.20
2017-10-15T04:56:25.108Z,15.20
2017-10-15T04:58:54.979Z,15.20
2017-10-15T05:01:24.734Z,15.20
2017-10-15T05:03:55.062Z,15.20
2017-10-15T05:06:25.860Z,15.20
2017-10-15T05:08:56.103Z,15.10
2017-10-15T05:11:26.030Z,15.10
2017-10-15T05:13:55.890Z,15.20
2017-10-15T05:16:26.057Z,15.20
2017-10-15T05:18:55.978Z,15.10
2017-10-15T05:21:25.893Z,15.20
2017-10-15T05:23:55.805Z,15.20
2017-10-15T05:26:25.517Z,15.20
2017-10-15T05:28:55.837Z,15.10
2017-10-15T05:31:25.752Z,15.20
2017-10-15T05:33:55.635Z,15.10
2017-10-15T05:36:25.732Z,15.20
2017-10-15T05:38:55.499Z,15.10
2017-10-15T05:41:25.613Z,15.10
2017-10-15T05:43:55.533Z,15.10
2017-10-15T05:46:26.426Z,15.10
2017-10-15T05:48:56.341Z,15.10
2017-10-15T05:51:26.489Z,15.10
2017-10-15T05:53:57.029Z,15.10
2017-10-15T05:56:26.739Z,15.10
2017-10-15T05:58:56.659Z,15.10
2017-10-15T06:01:26.772Z,15.10
2017-10-15T06:03:56.802Z,15.10
2017-10-15T06:06:28.033Z,15.10
2017-10-15T06:08:58.359Z,15.00
2017-10-15T06:11:28.274Z,15.10
2017-10-15T06:13:58.136Z,15.10
2017-10-15T06:16:27.897Z,15.00
2017-10-15T06:18:57.803Z,15.00
2017-10-15T06:21:27.697Z,15.00
2017-10-15T06:23:57.750Z,15.00
2017-10-15T06:26:28.752Z,15.00
2017-10-15T06:28:58.658Z,15.00
2017-10-15T06:31:28.643Z,15.00
2017-10-15T06:33:58.937Z,15.00
2017-10-15T06:36:28.848Z,15.00
2017-10-15T06:38:59.584Z,15.00
2017-10-15T06:41:29.905Z,15.00
2017-10-15T06:44:00.025Z,15.00
2017-10-15T06:46:30.963Z,15.00
2017-10-15T06:49:00.867Z,15.00
2017-10-15T06:51:31.617Z,15.00
2017-10-15T06:54:01.533Z,15.00
2017-10-15T06:56:31.392Z,15.00
2017-10-15T06:59:01.361Z,15.00
2017-10-15T07:01:31.643Z,15.00
2017-10-15T07:04:02.002Z,15.00
2017-10-15T07:06:32.180Z,15.00
2017-10-15T07:09:02.037Z,15.00
2017-10-15T07:11:32.184Z,15.00
2017-10-15T07:14:02.062Z,15.00
2017-10-15T07:16:33.614Z,15.00
2017-10-15T07:19:03.537Z,14.90
2017-10-15T07:21:33.612Z,15.00
2017-10-15T07:24:03.572Z,15.00
2017-10-15T07:26:33.893Z,14.90
2017-10-15T07:29:03.813Z,15.00
2017-10-15T07:31:34.807Z,14.90
2017-10-15T07:34:04.803Z,14.90
2017-10-15T07:36:34.983Z,14.90
2017-10-15T07:39:05.382Z,14.90
2017-10-15T07:41:35.641Z,14.90
2017-10-15T07:44:05.753Z,14.90
2017-10-15T07:46:35.829Z,14.90
2017-10-15T07:49:05.785Z,14.90
2017-10-15T07:51:36.058Z,14.90
2017-10-15T07:54:06.749Z,14.90
2017-10-15T07:56:37.782Z,14.80
2017-10-15T07:59:08.665Z,14.80
2017-10-15T08:01:38.573Z,14.80
2017-10-15T08:04:08.531Z,14.80
2017-10-15T08:06:38.468Z,14.90
2017-10-15T08:09:09.400Z,14.90
2017-10-15T08:11:39.704Z,14.90
2017-10-15T08:14:11.259Z,14.90
2017-10-15T08:16:41.284Z,14.90
2017-10-15T08:19:12.343Z,14.90
2017-10-15T08:21:42.755Z,14.90
2017-10-15T08:24:13.205Z,14.90
2017-10-15T08:26:43.106Z,14.90
2017-10-15T08:29:13.328Z,14.90
2017-10-15T08:31:44.595Z,15.00
2017-10-15T08:34:14.904Z,15.00
2017-10-15T08:36:44.809Z,15.00
2017-10-15T08:39:14.729Z,15.00
2017-10-15T08:41:45.053Z,15.00
2017-10-15T08:44:15.212Z,15.00
2017-10-15T08:46:45.232Z,15.00
2017-10-15T08:49:15.408Z,15.00
2017-10-15T08:51:45.317Z,14.90
2017-10-15T08:54:15.374Z,15.00
2017-10-15T08:56:45.766Z,15.00
2017-10-15T08:59:16.244Z,15.00
2017-10-15T09:01:46.002Z,15.00
2017-10-15T09:04:16.074Z,15.00
2017-10-15T09:06:46.197Z,15.00
2017-10-15T09:09:16.142Z,15.00
2017-10-15T09:11:47.004Z,15.00
2017-10-15T09:14:17.621Z,14.90
2017-10-15T09:16:47.537Z,14.90
2017-10-15T09:19:17.502Z,15.00
2017-10-15T09:21:48.182Z,15.00
2017-10-15T09:24:18.097Z,15.00
2017-10-15T09:26:48.744Z,15.00
2017-10-15T09:29:18.907Z,15.00
2017-10-15T09:31:49.474Z,15.00
2017-10-15T09:34:20.617Z,15.00
2017-10-15T09:36:50.582Z,15.00
2017-10-15T09:39:21.028Z,15.00
2017-10-15T09:41:51.179Z,15.00
2017-10-15T09:44:21.524Z,15.00
2017-10-15T09:46:51.630Z,15.00
2017-10-15T09:49:22.101Z,15.00
2017-10-15T09:51:52.173Z,15.00
2017-10-15T09:54:23.211Z,15.10
2017-10-15T09:56:53.327Z,15.10
2017-10-15T09:59:24.238Z,15.10
2017-10-15T10:01:54.340Z,15.10
2017-10-15T10:04:24.306Z,15.20
2017-10-15T10:06:56.653Z,15.20
2017-10-15T10:09:26.895Z,15.20
2017-10-15T10:11:56.852Z,15.20
2017-10-15T10:14:26.932Z,15.30
2017-10-15T10:16:56.999Z,15.30
2017-10-15T10:19:27.918Z,15.30
2017-10-15T10:21:57.904Z,15.30
2017-10-15T10:24:27.989Z,15.40
2017-10-15T10:26:58.754Z,15.40
2017-10-15T10:29:29.418Z,15.40
2017-10-15T10:32:00.121Z,15.50
2017-10-15T10:34:31.054Z,15.50
2017-10-15T10:37:02.095Z,15.70
2017-10-15T10:39:32.418Z,15.70
2017-10-15T10:42:02.908Z,15.80
2017-10-15T10:44:33.683Z,15.90
2017-10-15T10:47:03.767Z,16.00
2017-10-15T10:49:33.726Z,16.10
2017-10-15T10:52:03.643Z,16.10
2017-10-15T10:54:33.925Z,16.10
2017-10-15T10:57:03.830Z,16.10
2017-10-15T10:59:33.780Z,16.20
2017-10-15T11:02:04.027Z,16.30
2017-10-15T11:04:34.167Z,16.40
2017-10-15T11:07:04.114Z,16.40
2017-10-15T11:09:35.679Z,16.50
2017-10-15T11:12:07.454Z,16.60
2017-10-15T11:14:37.773Z,16.60
2017-10-15T11:17:07.680Z,16.60
2017-10-15T11:19:37.600Z,16.50
2017-10-15T11:22:08.125Z,16.50
2017-10-15T11:25:52.964Z,16.50
2017-10-15T11:28:23.590Z,16.50
2017-10-15T11:30:53.859Z,16.70
2017-10-15T11:33:23.769Z,16.80
2017-10-15T11:35:54.809Z,17.00
2017-10-15T11:38:24.929Z,16.90
2017-10-15T11:40:54.856Z,17.00
2017-10-15T11:43:24.970Z,17.10
2017-10-15T11:45:55.003Z,17.10
2017-10-15T11:48:25.772Z,17.20
2017-10-15T11:50:55.935Z,17.20
2017-10-15T11:53:26.459Z,17.30
2017-10-15T11:55:56.491Z,17.30
2017-10-15T11:58:26.494Z,17.40
2017-10-15T12:00:56.409Z,17.40
2017-10-15T12:03:26.693Z,17.40
2017-10-15T12:05:56.640Z,17.50
2017-10-15T12:08:26.976Z,17.50
2017-10-15T12:10:57.264Z,17.60
2017-10-15T12:13:27.416Z,17.60
2017-10-15T12:15:58.358Z,17.70
2017-10-15T12:18:28.479Z,17.70
2017-10-15T12:20:58.503Z,17.70
2017-10-15T12:23:29.533Z,17.70
2017-10-15T12:25:59.608Z,17.70
2017-10-15T12:28:29.562Z,17.70
2017-10-15T12:30:59.856Z,17.80
2017-10-15T12:33:30.513Z,17.90
2017-10-15T12:36:01.364Z,17.80
2017-10-15T12:38:31.267Z,17.90
2017-10-15T12:41:01.413Z,17.90
2017-10-15T12:43:31.920Z,17.90
2017-10-15T12:46:01.830Z,17.90
2017-10-15T12:48:32.359Z,18.00
2017-10-15T12:51:02.273Z,17.90
2017-10-15T12:53:32.396Z,17.90
2017-10-15T12:56:02.465Z,18.00
2017-10-15T12:58:32.531Z,17.90
2017-10-15T13:01:02.674Z,17.90
2017-10-15T13:03:32.797Z,17.90
2017-10-15T13:06:02.985Z,17.90
2017-10-15T13:08:33.109Z,17.90
2017-10-15T13:11:03.198Z,17.90
2017-10-15T13:13:33.143Z,17.90
2017-10-15T13:16:03.058Z,17.90
2017-10-15T13:18:33.388Z,17.80
2017-10-15T13:21:03.500Z,17.90
2017-10-15T13:23:34.027Z,17.90
2017-10-15T13:26:04.353Z,17.90
2017-10-15T13:28:34.353Z,17.90
2017-10-15T13:31:04.800Z,17.90
2017-10-15T13:33:34.709Z,17.80
2017-10-15T13:36:04.828Z,17.80
2017-10-15T13:38:34.957Z,17.70
2017-10-15T13:41:05.285Z,17.70
2017-10-15T13:43:38.010Z,17.70
2017-10-15T13:46:09.308Z,17.70
2017-10-15T13:48:40.142Z,17.60
2017-10-15T13:51:24.669Z,17.60
2017-10-15T13:53:56.660Z,17.60
2017-10-15T13:56:27.909Z,17.60
2017-10-15T13:58:58.084Z,17.60
2017-10-15T14:01:28.347Z,17.50
2017-10-15T14:03:59.044Z,17.60
2017-10-15T14:06:29.194Z,17.50
2017-10-15T14:09:00.773Z,17.50
2017-10-15T14:11:31.070Z,17.50
2017-10-15T14:14:01.149Z,17.50
2017-10-15T14:16:31.311Z,17.50
2017-10-15T14:19:01.590Z,17.50
2017-10-15T14:21:31.753Z,17.50
2017-10-15T14:24:01.874Z,17.40
2017-10-15T14:26:32.409Z,17.50
2017-10-15T14:29:03.138Z,17.40
2017-10-15T14:31:33.269Z,17.40
2017-10-15T14:34:03.579Z,17.40
2017-10-15T14:36:33.494Z,17.40
2017-10-15T14:39:03.621Z,17.40
2017-10-15T14:41:33.939Z,17.40
2017-10-15T14:44:04.176Z,17.40
2017-10-15T14:46:34.540Z,17.40
2017-10-15T14:49:04.342Z,17.40
2017-10-15T14:51:34.625Z,17.40
2017-10-15T14:54:04.743Z,17.40
2017-10-15T14:56:34.655Z,17.40
2017-10-15T14:59:04.998Z,17.40
2017-10-15T15:01:35.044Z,17.40
2017-10-15T15:04:05.011Z,17.30
2017-10-15T15:06:35.289Z,17.30
2017-10-15T15:09:05.416Z,17.30
2017-10-15T15:11:35.977Z,17.30
2017-10-15T15:14:06.464Z,17.30
2017-10-15T15:16:37.040Z,17.30
2017-10-15T15:19:07.966Z,17.20
2017-10-15T15:21:38.111Z,17.20
2017-10-15T15:24:08.223Z,17.20
2017-10-15T15:26:39.626Z,17.20
2017-10-15T15:29:09.847Z,17.20
2017-10-15T15:31:40.421Z,17.20
2017-10-15T15:34:10.500Z,17.20
2017-10-15T15:36:40.576Z,17.20
2017-10-15T15:39:10.554Z,17.20
2017-10-15T15:41:41.502Z,17.10
2017-10-15T15:44:12.405Z,17.10
2017-10-15T15:46:42.571Z,17.10
2017-10-15T15:49:12.676Z,17.10
2017-10-15T15:51:43.134Z,17.10
2017-10-15T15:54:13.400Z,17.10
2017-10-15T15:56:44.066Z,17.10
2017-10-15T15:59:14.039Z,17.10
2017-10-15T16:01:44.518Z,17.10
2017-10-15T16:04:14.629Z,17.00
2017-10-15T16:06:44.338Z,17.00
2017-10-15T16:09:15.073Z,17.00
2017-10-15T16:11:46.214Z,17.00
2017-10-15T16:14:16.352Z,16.90
2017-10-15T16:16:46.341Z,16.90
2017-10-15T16:19:16.984Z,16.90
2017-10-15T16:21:47.301Z,16.90
2017-10-15T16:24:17.682Z,16.90
2017-10-15T16:26:47.957Z,16.90
2017-10-15T16:29:18.689Z,16.90
2017-10-15T16:31:50.062Z,16.80
2017-10-15T16:34:20.382Z,16.90
2017-10-15T16:36:50.476Z,16.80
2017-10-15T16:39:20.755Z,16.80
2017-10-15T16:41:50.921Z,16.80
2017-10-15T16:44:21.016Z,16.80
2017-10-15T16:46:51.979Z,16.80
2017-10-15T16:49:22.097Z,16.80
2017-10-15T16:51:53.404Z,16.80
2017-10-15T16:54:24.631Z,16.80
2017-10-15T16:56:54.910Z,16.80
2017-10-15T16:59:25.852Z,16.70
2017-10-15T17:01:56.379Z,16.70
2017-10-15T17:04:26.846Z,16.70
2017-10-15T17:06:57.586Z,16.70
2017-10-15T17:09:28.105Z,16.70
2017-10-15T17:11:58.246Z,16.60
2017-10-15T17:14:28.391Z,16.60
2017-10-15T17:16:59.962Z,16.50
2017-10-15T17:19:30.697Z,16.50
2017-10-15T17:22:00.764Z,16.50
2017-10-15T17:24:30.715Z,16.50
2017-10-15T17:27:02.079Z,16.50
2017-10-15T17:29:32.199Z,16.40
2017-10-15T17:32:02.833Z,16.40
2017-10-15T17:34:32.951Z,16.40
2017-10-15T17:37:02.924Z,16.40
2017-10-15T17:39:33.112Z,16.40
2017-10-15T17:42:03.307Z,16.30
2017-10-15T17:44:33.430Z,16.30
2017-10-15T17:47:03.636Z,16.30
2017-10-15T17:49:42.470Z,16.30
2017-10-15T17:52:12.619Z,16.30
2017-10-15T17:54:44.726Z,16.20
2017-10-15T17:57:15.077Z,16.20
2017-10-15T17:59:45.300Z,16.20
2017-10-15T18:02:16.324Z,16.20
2017-10-15T18:04:46.779Z,16.20
2017-10-15T18:07:17.509Z,16.10
2017-10-15T18:09:47.560Z,16.10
2017-10-15T18:12:18.300Z,16.10
2017-10-15T18:14:48.842Z,16.10
2017-10-15T18:17:18.974Z,16.10
2017-10-15T18:19:49.086Z,16.10
2017-10-15T18:22:19.010Z,16.00
2017-10-15T18:24:48.926Z,16.00
2017-10-15T18:27:19.849Z,16.00
2017-10-15T18:29:50.004Z,16.00
2017-10-15T18:32:20.343Z,16.00
2017-10-15T18:34:51.062Z,16.00
2017-10-15T18:37:21.581Z,16.00
2017-10-15T18:39:51.852Z,16.00
2017-10-15T18:42:22.320Z,16.00
2017-10-15T18:44:53.010Z,16.00
2017-10-15T18:47:23.326Z,15.90
2017-10-15T18:49:53.962Z,15.90
2017-10-15T18:52:24.046Z,15.90
2017-10-15T18:54:54.319Z,15.90
2017-10-15T18:57:24.272Z,15.90
2017-10-15T18:59:55.178Z,15.90
2017-10-15T19:02:25.326Z,15.90
2017-10-15T19:04:55.432Z,15.90
2017-10-15T19:07:26.478Z,15.90
2017-10-15T19:09:56.634Z,15.90
2017-10-15T19:12:27.609Z,15.90
2017-10-15T19:14:57.754Z,15.90
2017-10-15T19:17:27.831Z,15.90
2017-10-15T19:19:58.653Z,15.90
2017-10-15T19:22:28.701Z,15.90
2017-10-15T19:24:58.649Z,15.90
2017-10-15T19:27:28.744Z,15.90
2017-10-15T19:29:58.816Z,15.90
2017-10-15T19:32:30.062Z,15.90
2017-10-15T19:35:00.386Z,15.80
2017-10-15T19:37:30.585Z,15.80
2017-10-15T19:40:01.846Z,15.90
2017-10-15T19:42:32.372Z,15.80
2017-10-15T19:45:02.960Z,15.80
2017-10-15T19:47:34.035Z,15.80
2017-10-15T19:50:04.320Z,15.80
2017-10-15T19:52:35.472Z,15.80
2017-10-15T19:55:05.540Z,15.80
2017-10-15T19:57:35.751Z,15.80
2017-10-15T20:00:06.037Z,15.80
2017-10-15T20:02:36.150Z,15.70
2017-10-15T20:05:06.314Z,15.80
2017-10-15T20:07:36.448Z,15.70
2017-10-15T20:10:06.565Z,15.70
2017-10-15T20:12:36.664Z,15.70
2017-10-15T20:15:06.783Z,15.70
2017-10-15T20:17:37.303Z,15.70
2017-10-15T20:20:07.439Z,15.70
2017-10-15T20:22:37.754Z,15.70
2017-10-15T20:25:08.270Z,15.70
2017-10-15T20:27:38.198Z,15.70
2017-10-15T20:30:08.732Z,15.60
2017-10-15T20:32:39.050Z,15.60
2017-10-15T20:35:09.134Z,15.60
2017-10-15T20:37:39.084Z,15.60
2017-10-15T20:40:09.161Z,15.60
2017-10-15T20:42:39.116Z,15.60
2017-10-15T20:45:09.430Z,15.60
2017-10-15T20:47:39.745Z,15.60
2017-10-15T20:50:09.893Z,15.60
2017-10-15T20:52:40.648Z,15.60
2017-10-15T20:55:10.746Z,15.50
2017-10-15T20:57:40.870Z,15.50
2017-10-15T21:00:11.786Z,15.50
2017-10-15T21:02:42.106Z,15.50
2017-10-15T21:05:12.264Z,15.50
2017-10-15T21:07:42.563Z,15.50
2017-10-15T21:10:12.895Z,15.50
2017-10-15T21:12:43.176Z,15.50
2017-10-15T21:15:13.121Z,15.40
2017-10-15T21:17:44.068Z,15.50
2017-10-15T21:20:14.178Z,15.40
2017-10-15T21:22:44.297Z,15.40
2017-10-15T21:25:14.536Z,15.40
2017-10-15T21:27:45.366Z,15.40
2017-10-15T21:30:15.477Z,15.40
2017-10-15T21:32:45.390Z,15.40
2017-10-15T21:35:15.312Z,15.40
2017-10-15T21:37:45.255Z,15.30
2017-10-15T21:40:15.717Z,15.30
2017-10-15T21:42:46.092Z,15.30
2017-10-15T21:45:16.203Z,15.30
2017-10-15T21:47:46.897Z,15.30
2017-10-15T21:50:16.866Z,15.30
2017-10-15T21:52:47.778Z,15.30
2017-10-15T21:55:17.908Z,15.30
2017-10-15T21:57:48.856Z,15.20
2017-10-15T22:00:21.006Z,15.20
2017-10-15T22:02:51.045Z,15.20
2017-10-15T22:05:21.244Z,15.20
2017-10-15T22:07:51.150Z,15.20
2017-10-15T22:10:21.131Z,15.10
2017-10-15T22:12:51.599Z,15.10
2017-10-15T22:15:21.511Z,15.10
2017-10-15T22:17:51.644Z,15.10
2017-10-15T22:20:26.259Z,15.10
2017-10-15T22:22:56.174Z,15.10
2017-10-15T22:25:26.088Z,15.10
2017-10-15T22:27:57.027Z,15.00
2017-10-15T22:30:27.322Z,15.00
2017-10-15T22:32:58.089Z,15.00
2017-10-15T22:35:28.961Z,15.00
2017-10-15T22:37:58.933Z,15.00
2017-10-15T22:40:29.055Z,15.00
2017-10-15T22:42:59.140Z,14.90
2017-10-15T22:45:29.087Z,14.90
2017-10-15T22:48:00.025Z,14.90
2017-10-15T22:50:30.966Z,14.90
2017-10-15T22:53:01.106Z,14.90
2017-10-15T22:55:31.416Z,14.90
2017-10-15T22:58:01.518Z,14.80
2017-10-15T23:00:32.468Z,14.80
2017-10-15T23:03:03.152Z,14.80
2017-10-15T23:05:33.009Z,14.80
2017-10-15T23:08:03.638Z,14.70
2017-10-15T23:10:33.555Z,14.70
2017-10-15T23:13:03.475Z,14.70
2017-10-15T23:15:33.588Z,14.70
2017-10-15T23:18:04.320Z,14.70
2017-10-15T23:20:34.235Z,14.70
2017-10-15T23:23:04.148Z,14.60
2017-10-15T23:25:33.860Z,14.60
2017-10-15T23:28:03.981Z,14.60
2017-10-15T23:30:33.879Z,14.60
2017-10-15T23:33:04.014Z,14.60
2017-10-15T23:35:33.927Z,14.60
2017-10-15T23:38:03.845Z,14.60
2017-10-15T23:40:33.743Z,14.50
2017-10-15T23:43:03.668Z,14.50
2017-10-15T23:45:33.582Z,14.50
2017-10-15T23:48:04.200Z,14.50
2017-10-15T23:50:34.231Z,14.50
2017-10-15T23:53:04.283Z,14.50
2017-10-15T23:55:34.878Z,14.40
2017-10-15T23:58:05.174Z,14.40
